sensor_id;sensor_type;location;lat;lon;timestamp;P1;durP1;ratioP1;P2;durP2;ratioP2
47337;SDS011;33069;51.970;5.892;2023-03-01T00:01:23;5.13;;;4.35;;
47337;SDS011;33069;51.970;5.892;2023-03-01T00:03:51;8.07;;;4.55;;
47337;SDS011;33069;51.970;5.892;2023-03-01T00:06:18;6.68;;;4.45;;
47337;SDS011;33069;51.970;5.892;2023-03-01T00:08:44;5.82;;;4.18;;
47337;SDS011;33069;51.970;5.892;2023-03-01T00:13:54;7.38;;;4.45;;
47337;SDS011;33069;51.970;5.892;2023-03-01T00:16:22;6.22;;;4.47;;
47337;SDS011;33069;51.970;5.892;2023-03-01T00:18:54;6.45;;;4.03;;
47337;SDS011;33069;51.970;5.892;2023-03-01T00:21:21;8.95;;;4.95;;
47337;SDS011;33069;51.970;5.892;2023-03-01T00:23:47;7.07;;;4.72;;
47337;SDS011;33069;51.970;5.892;2023-03-01T00:26:14;7.97;;;4.43;;
47337;SDS011;33069;51.970;5.892;2023-03-01T00:28:40;7.40;;;5.28;;
47337;SDS011;33069;51.970;5.892;2023-03-01T00:31:08;6.60;;;4.50;;
47337;SDS011;33069;51.970;5.892;2023-03-01T00:33:35;7.18;;;4.80;;
47337;SDS011;33069;51.970;5.892;2023-03-01T00:36:02;6.32;;;4.10;;
47337;SDS011;33069;51.970;5.892;2023-03-01T00:38:28;6.10;;;4.25;;
47337;SDS011;33069;51.970;5.892;2023-03-01T00:40:54;5.78;;;4.10;;
47337;SDS011;33069;51.970;5.892;2023-03-01T00:43:20;8.63;;;4.75;;
47337;SDS011;33069;51.970;5.892;2023-03-01T00:45:46;5.35;;;4.35;;
47337;SDS011;33069;51.970;5.892;2023-03-01T00:48:11;5.88;;;4.20;;
47337;SDS011;33069;51.970;5.892;2023-03-01T00:50:37;7.55;;;4.55;;
47337;SDS011;33069;51.970;5.892;2023-03-01T00:53:03;8.18;;;4.65;;
47337;SDS011;33069;51.970;5.892;2023-03-01T00:55:30;8.52;;;4.60;;
47337;SDS011;33069;51.970;5.892;2023-03-01T00:57:55;9.20;;;4.90;;
47337;SDS011;33069;51.970;5.892;2023-03-01T01:00:21;7.00;;;4.18;;
47337;SDS011;33069;51.970;5.892;2023-03-01T01:02:47;6.35;;;4.50;;
47337;SDS011;33069;51.970;5.892;2023-03-01T01:05:13;5.80;;;4.60;;
47337;SDS011;33069;51.970;5.892;2023-03-01T01:07:39;9.63;;;4.47;;
47337;SDS011;33069;51.970;5.892;2023-03-01T01:10:05;7.65;;;4.32;;
47337;SDS011;33069;51.970;5.892;2023-03-01T01:12:32;9.70;;;5.32;;
47337;SDS011;33069;51.970;5.892;2023-03-01T01:14:58;7.20;;;5.28;;
47337;SDS011;33069;51.970;5.892;2023-03-01T01:17:23;5.40;;;4.75;;
47337;SDS011;33069;51.970;5.892;2023-03-01T01:19:49;7.18;;;5.60;;
47337;SDS011;33069;51.970;5.892;2023-03-01T01:22:15;8.25;;;6.00;;
47337;SDS011;33069;51.970;5.892;2023-03-01T01:24:40;6.72;;;5.60;;
47337;SDS011;33069;51.970;5.892;2023-03-01T01:27:06;7.60;;;6.00;;
47337;SDS011;33069;51.970;5.892;2023-03-01T01:29:32;8.25;;;5.95;;
47337;SDS011;33069;51.970;5.892;2023-03-01T01:31:58;9.90;;;6.47;;
47337;SDS011;33069;51.970;5.892;2023-03-01T01:34:23;10.75;;;7.18;;
47337;SDS011;33069;51.970;5.892;2023-03-01T01:36:50;7.85;;;5.72;;
47337;SDS011;33069;51.970;5.892;2023-03-01T01:39:20;10.02;;;6.70;;
47337;SDS011;33069;51.970;5.892;2023-03-01T01:41:47;8.75;;;6.97;;
47337;SDS011;33069;51.970;5.892;2023-03-01T01:47:06;9.40;;;7.03;;
47337;SDS011;33069;51.970;5.892;2023-03-01T01:49:42;10.30;;;7.05;;
47337;SDS011;33069;51.970;5.892;2023-03-01T01:52:22;9.63;;;6.50;;
47337;SDS011;33069;51.970;5.892;2023-03-01T01:54:54;11.93;;;6.68;;
47337;SDS011;33069;51.970;5.892;2023-03-01T01:57:36;12.52;;;7.30;;
47337;SDS011;33069;51.970;5.892;2023-03-01T02:00:13;8.95;;;6.28;;
47337;SDS011;33069;51.970;5.892;2023-03-01T02:02:39;7.80;;;6.00;;
47337;SDS011;33069;51.970;5.892;2023-03-01T02:05:19;7.47;;;6.18;;
47337;SDS011;33069;51.970;5.892;2023-03-01T02:07:52;9.77;;;6.18;;
47337;SDS011;33069;51.970;5.892;2023-03-01T02:10:19;8.52;;;6.50;;
47337;SDS011;33069;51.970;5.892;2023-03-01T02:12:46;9.68;;;6.35;;
47337;SDS011;33069;51.970;5.892;2023-03-01T02:15:12;10.15;;;6.40;;
47337;SDS011;33069;51.970;5.892;2023-03-01T02:17:37;7.80;;;5.68;;
47337;SDS011;33069;51.970;5.892;2023-03-01T02:20:15;7.72;;;5.43;;
47337;SDS011;33069;51.970;5.892;2023-03-01T02:22:56;8.98;;;6.07;;
47337;SDS011;33069;51.970;5.892;2023-03-01T02:30:44;10.23;;;6.32;;
47337;SDS011;33069;51.970;5.892;2023-03-01T02:33:31;7.55;;;5.53;;
47337;SDS011;33069;51.970;5.892;2023-03-01T02:36:02;7.50;;;5.13;;
47337;SDS011;33069;51.970;5.892;2023-03-01T02:38:29;8.27;;;6.15;;
47337;SDS011;33069;51.970;5.892;2023-03-01T02:40:56;7.63;;;5.93;;
47337;SDS011;33069;51.970;5.892;2023-03-01T02:43:24;9.32;;;5.75;;
47337;SDS011;33069;51.970;5.892;2023-03-01T02:45:56;9.43;;;5.57;;
47337;SDS011;33069;51.970;5.892;2023-03-01T02:48:23;11.48;;;5.20;;
47337;SDS011;33069;51.970;5.892;2023-03-01T02:51:10;9.15;;;6.43;;
47337;SDS011;33069;51.970;5.892;2023-03-01T02:56:40;7.40;;;5.55;;
47337;SDS011;33069;51.970;5.892;2023-03-01T02:59:07;8.93;;;5.70;;
47337;SDS011;33069;51.970;5.892;2023-03-01T03:01:34;8.27;;;5.30;;
47337;SDS011;33069;51.970;5.892;2023-03-01T03:04:06;8.20;;;5.70;;
47337;SDS011;33069;51.970;5.892;2023-03-01T03:06:34;9.38;;;5.90;;
47337;SDS011;33069;51.970;5.892;2023-03-01T03:09:01;7.40;;;5.20;;
47337;SDS011;33069;51.970;5.892;2023-03-01T03:11:27;7.97;;;5.03;;
47337;SDS011;33069;51.970;5.892;2023-03-01T03:13:53;7.68;;;5.40;;
47337;SDS011;33069;51.970;5.892;2023-03-01T03:16:19;6.45;;;5.07;;
47337;SDS011;33069;51.970;5.892;2023-03-01T03:18:45;8.55;;;5.03;;
47337;SDS011;33069;51.970;5.892;2023-03-01T03:21:11;11.63;;;6.07;;
47337;SDS011;33069;51.970;5.892;2023-03-01T03:23:38;8.93;;;5.65;;
47337;SDS011;33069;51.970;5.892;2023-03-01T03:26:04;9.57;;;5.80;;
47337;SDS011;33069;51.970;5.892;2023-03-01T03:28:34;7.57;;;5.38;;
47337;SDS011;33069;51.970;5.892;2023-03-01T03:31:00;7.25;;;5.03;;
47337;SDS011;33069;51.970;5.892;2023-03-01T03:33:29;9.77;;;5.55;;
47337;SDS011;33069;51.970;5.892;2023-03-01T03:35:55;11.20;;;6.10;;
47337;SDS011;33069;51.970;5.892;2023-03-01T03:38:21;8.13;;;5.78;;
47337;SDS011;33069;51.970;5.892;2023-03-01T03:40:52;10.35;;;5.32;;
47337;SDS011;33069;51.970;5.892;2023-03-01T03:43:29;8.38;;;6.07;;
47337;SDS011;33069;51.970;5.892;2023-03-01T03:45:56;7.95;;;5.45;;
47337;SDS011;33069;51.970;5.892;2023-03-01T03:48:22;8.45;;;5.55;;
47337;SDS011;33069;51.970;5.892;2023-03-01T03:50:50;9.70;;;6.50;;
47337;SDS011;33069;51.970;5.892;2023-03-01T03:53:18;9.73;;;5.70;;
47337;SDS011;33069;51.970;5.892;2023-03-01T03:55:44;9.23;;;5.53;;
47337;SDS011;33069;51.970;5.892;2023-03-01T03:58:10;8.70;;;6.03;;
47337;SDS011;33069;51.970;5.892;2023-03-01T04:00:40;9.35;;;5.50;;
47337;SDS011;33069;51.970;5.892;2023-03-01T04:03:08;8.68;;;6.20;;
47337;SDS011;33069;51.970;5.892;2023-03-01T04:05:35;9.80;;;6.25;;
47337;SDS011;33069;51.970;5.892;2023-03-01T04:08:01;9.27;;;5.60;;
47337;SDS011;33069;51.970;5.892;2023-03-01T04:10:28;8.73;;;6.40;;
47337;SDS011;33069;51.970;5.892;2023-03-01T04:12:55;9.65;;;6.43;;
47337;SDS011;33069;51.970;5.892;2023-03-01T04:15:21;12.00;;;6.95;;
47337;SDS011;33069;51.970;5.892;2023-03-01T04:17:49;8.90;;;5.65;;
47337;SDS011;33069;51.970;5.892;2023-03-01T04:20:38;11.18;;;6.57;;
47337;SDS011;33069;51.970;5.892;2023-03-01T04:23:13;10.38;;;6.05;;
47337;SDS011;33069;51.970;5.892;2023-03-01T04:28:19;9.65;;;6.90;;
47337;SDS011;33069;51.970;5.892;2023-03-01T04:31:09;11.77;;;7.40;;
47337;SDS011;33069;51.970;5.892;2023-03-01T04:36:08;11.00;;;6.70;;
47337;SDS011;33069;51.970;5.892;2023-03-01T04:38:36;9.00;;;6.78;;
47337;SDS011;33069;51.970;5.892;2023-03-01T04:41:06;8.45;;;6.55;;
47337;SDS011;33069;51.970;5.892;2023-03-01T04:43:34;8.93;;;6.47;;
47337;SDS011;33069;51.970;5.892;2023-03-01T04:46:04;8.07;;;6.97;;
47337;SDS011;33069;51.970;5.892;2023-03-01T04:48:35;9.65;;;7.18;;
47337;SDS011;33069;51.970;5.892;2023-03-01T04:51:02;10.20;;;6.90;;
47337;SDS011;33069;51.970;5.892;2023-03-01T04:53:29;8.73;;;6.60;;
47337;SDS011;33069;51.970;5.892;2023-03-01T04:55:55;10.63;;;6.50;;
47337;SDS011;33069;51.970;5.892;2023-03-01T04:58:24;9.32;;;6.88;;
47337;SDS011;33069;51.970;5.892;2023-03-01T05:00:53;8.18;;;7.03;;
47337;SDS011;33069;51.970;5.892;2023-03-01T05:03:19;9.55;;;6.65;;
47337;SDS011;33069;51.970;5.892;2023-03-01T05:05:47;9.40;;;7.00;;
47337;SDS011;33069;51.970;5.892;2023-03-01T05:08:15;8.93;;;6.63;;
47337;SDS011;33069;51.970;5.892;2023-03-01T05:10:49;8.23;;;6.35;;
47337;SDS011;33069;51.970;5.892;2023-03-01T05:13:16;12.13;;;7.63;;
47337;SDS011;33069;51.970;5.892;2023-03-01T05:15:46;10.13;;;7.65;;
47337;SDS011;33069;51.970;5.892;2023-03-01T05:18:14;11.02;;;7.40;;
47337;SDS011;33069;51.970;5.892;2023-03-01T05:20:39;7.60;;;6.65;;
47337;SDS011;33069;51.970;5.892;2023-03-01T05:23:06;10.63;;;6.93;;
47337;SDS011;33069;51.970;5.892;2023-03-01T05:25:34;9.75;;;7.10;;
47337;SDS011;33069;51.970;5.892;2023-03-01T05:28:05;8.47;;;6.43;;
47337;SDS011;33069;51.970;5.892;2023-03-01T05:30:33;8.20;;;6.43;;
47337;SDS011;33069;51.970;5.892;2023-03-01T05:32:59;12.48;;;8.20;;
47337;SDS011;33069;51.970;5.892;2023-03-01T05:35:26;9.05;;;7.25;;
47337;SDS011;33069;51.970;5.892;2023-03-01T05:37:52;11.60;;;7.40;;
47337;SDS011;33069;51.970;5.892;2023-03-01T05:40:19;11.30;;;8.00;;
47337;SDS011;33069;51.970;5.892;2023-03-01T05:42:53;9.95;;;7.90;;
47337;SDS011;33069;51.970;5.892;2023-03-01T05:45:21;10.32;;;8.05;;
47337;SDS011;33069;51.970;5.892;2023-03-01T05:47:48;11.63;;;8.10;;
47337;SDS011;33069;51.970;5.892;2023-03-01T05:50:24;11.40;;;9.60;;
47337;SDS011;33069;51.970;5.892;2023-03-01T05:52:59;13.32;;;8.00;;
47337;SDS011;33069;51.970;5.892;2023-03-01T05:55:33;10.70;;;6.95;;
47337;SDS011;33069;51.970;5.892;2023-03-01T05:58:00;14.15;;;8.95;;
47337;SDS011;33069;51.970;5.892;2023-03-01T06:00:27;10.77;;;8.93;;
47337;SDS011;33069;51.970;5.892;2023-03-01T06:02:55;9.93;;;8.90;;
47337;SDS011;33069;51.970;5.892;2023-03-01T06:05:21;10.77;;;9.77;;
47337;SDS011;33069;51.970;5.892;2023-03-01T06:07:48;14.90;;;10.23;;
47337;SDS011;33069;51.970;5.892;2023-03-01T06:10:15;9.00;;;8.10;;
47337;SDS011;33069;51.970;5.892;2023-03-01T06:12:41;12.27;;;9.05;;
47337;SDS011;33069;51.970;5.892;2023-03-01T06:15:09;20.48;;;10.98;;
47337;SDS011;33069;51.970;5.892;2023-03-01T06:17:36;20.02;;;11.15;;
47337;SDS011;33069;51.970;5.892;2023-03-01T06:20:04;13.20;;;9.48;;
47337;SDS011;33069;51.970;5.892;2023-03-01T06:22:31;16.00;;;9.82;;
47337;SDS011;33069;51.970;5.892;2023-03-01T06:24:57;10.75;;;9.65;;
47337;SDS011;33069;51.970;5.892;2023-03-01T06:27:23;10.00;;;8.93;;
47337;SDS011;33069;51.970;5.892;2023-03-01T06:29:48;10.45;;;9.48;;
47337;SDS011;33069;51.970;5.892;2023-03-01T06:32:14;14.85;;;9.90;;
47337;SDS011;33069;51.970;5.892;2023-03-01T06:34:40;14.90;;;10.10;;
47337;SDS011;33069;51.970;5.892;2023-03-01T06:37:06;13.52;;;10.98;;
47337;SDS011;33069;51.970;5.892;2023-03-01T06:39:32;14.05;;;10.10;;
47337;SDS011;33069;51.970;5.892;2023-03-01T06:41:58;11.60;;;10.05;;
47337;SDS011;33069;51.970;5.892;2023-03-01T06:44:24;11.40;;;9.63;;
47337;SDS011;33069;51.970;5.892;2023-03-01T06:46:50;23.13;;;14.25;;
47337;SDS011;33069;51.970;5.892;2023-03-01T06:49:16;15.20;;;11.95;;
47337;SDS011;33069;51.970;5.892;2023-03-01T06:51:43;20.17;;;13.07;;
47337;SDS011;33069;51.970;5.892;2023-03-01T06:54:09;15.10;;;11.85;;
47337;SDS011;33069;51.970;5.892;2023-03-01T06:56:38;16.23;;;13.20;;
47337;SDS011;33069;51.970;5.892;2023-03-01T06:59:04;13.10;;;11.55;;
47337;SDS011;33069;51.970;5.892;2023-03-01T07:01:30;14.77;;;13.27;;
47337;SDS011;33069;51.970;5.892;2023-03-01T07:03:56;14.40;;;12.10;;
47337;SDS011;33069;51.970;5.892;2023-03-01T07:06:22;16.30;;;12.07;;
47337;SDS011;33069;51.970;5.892;2023-03-01T07:08:48;14.20;;;12.05;;
47337;SDS011;33069;51.970;5.892;2023-03-01T07:11:14;15.48;;;11.80;;
47337;SDS011;33069;51.970;5.892;2023-03-01T07:13:40;15.00;;;11.65;;
47337;SDS011;33069;51.970;5.892;2023-03-01T07:16:06;14.88;;;12.32;;
47337;SDS011;33069;51.970;5.892;2023-03-01T07:18:33;17.45;;;12.50;;
47337;SDS011;33069;51.970;5.892;2023-03-01T07:21:03;13.98;;;12.68;;
47337;SDS011;33069;51.970;5.892;2023-03-01T07:23:30;15.57;;;11.98;;
47337;SDS011;33069;51.970;5.892;2023-03-01T07:25:56;13.45;;;11.95;;
47337;SDS011;33069;51.970;5.892;2023-03-01T07:28:24;12.45;;;11.30;;
47337;SDS011;33069;51.970;5.892;2023-03-01T07:30:50;12.95;;;11.65;;
47337;SDS011;33069;51.970;5.892;2023-03-01T07:33:16;12.90;;;11.60;;
47337;SDS011;33069;51.970;5.892;2023-03-01T07:35:42;17.48;;;12.00;;
47337;SDS011;33069;51.970;5.892;2023-03-01T07:38:08;13.50;;;12.10;;
47337;SDS011;33069;51.970;5.892;2023-03-01T07:40:34;12.88;;;11.52;;
47337;SDS011;33069;51.970;5.892;2023-03-01T07:43:00;11.02;;;10.05;;
47337;SDS011;33069;51.970;5.892;2023-03-01T07:45:26;13.38;;;11.60;;
47337;SDS011;33069;51.970;5.892;2023-03-01T07:47:53;14.85;;;13.30;;
47337;SDS011;33069;51.970;5.892;2023-03-01T07:50:19;13.25;;;11.50;;
47337;SDS011;33069;51.970;5.892;2023-03-01T07:52:46;13.82;;;12.35;;
47337;SDS011;33069;51.970;5.892;2023-03-01T07:55:12;14.32;;;12.20;;
47337;SDS011;33069;51.970;5.892;2023-03-01T07:57:38;17.73;;;13.27;;
47337;SDS011;33069;51.970;5.892;2023-03-01T08:00:04;13.88;;;12.40;;
47337;SDS011;33069;51.970;5.892;2023-03-01T08:02:31;15.60;;;12.70;;
47337;SDS011;33069;51.970;5.892;2023-03-01T08:04:57;12.20;;;11.00;;
47337;SDS011;33069;51.970;5.892;2023-03-01T08:07:22;12.95;;;11.32;;
47337;SDS011;33069;51.970;5.892;2023-03-01T08:09:48;13.63;;;12.32;;
47337;SDS011;33069;51.970;5.892;2023-03-01T08:12:14;15.23;;;12.18;;
47337;SDS011;33069;51.970;5.892;2023-03-01T08:14:41;11.93;;;10.88;;
47337;SDS011;33069;51.970;5.892;2023-03-01T08:17:07;14.15;;;11.65;;
47337;SDS011;33069;51.970;5.892;2023-03-01T08:19:33;11.75;;;10.48;;
47337;SDS011;33069;51.970;5.892;2023-03-01T08:22:00;12.32;;;11.18;;
47337;SDS011;33069;51.970;5.892;2023-03-01T08:24:27;15.15;;;11.05;;
47337;SDS011;33069;51.970;5.892;2023-03-01T08:26:53;11.98;;;10.68;;
47337;SDS011;33069;51.970;5.892;2023-03-01T08:29:20;13.35;;;11.35;;
47337;SDS011;33069;51.970;5.892;2023-03-01T08:31:46;12.27;;;11.10;;
47337;SDS011;33069;51.970;5.892;2023-03-01T08:34:13;13.35;;;11.43;;
47337;SDS011;33069;51.970;5.892;2023-03-01T08:36:41;12.00;;;10.48;;
47337;SDS011;33069;51.970;5.892;2023-03-01T08:39:08;14.02;;;10.73;;
47337;SDS011;33069;51.970;5.892;2023-03-01T08:41:36;14.70;;;10.80;;
47337;SDS011;33069;51.970;5.892;2023-03-01T08:44:02;11.93;;;9.85;;
47337;SDS011;33069;51.970;5.892;2023-03-01T08:46:29;11.30;;;9.13;;
47337;SDS011;33069;51.970;5.892;2023-03-01T08:49:03;11.00;;;9.90;;
47337;SDS011;33069;51.970;5.892;2023-03-01T08:51:32;12.45;;;10.55;;
47337;SDS011;33069;51.970;5.892;2023-03-01T08:54:05;10.75;;;9.60;;
47337;SDS011;33069;51.970;5.892;2023-03-01T08:56:32;13.38;;;9.48;;
47337;SDS011;33069;51.970;5.892;2023-03-01T08:58:58;10.57;;;9.52;;
47337;SDS011;33069;51.970;5.892;2023-03-01T09:01:24;10.57;;;9.48;;
47337;SDS011;33069;51.970;5.892;2023-03-01T09:03:50;11.15;;;8.52;;
47337;SDS011;33069;51.970;5.892;2023-03-01T09:06:16;10.02;;;8.63;;
47337;SDS011;33069;51.970;5.892;2023-03-01T09:08:42;10.43;;;8.63;;
47337;SDS011;33069;51.970;5.892;2023-03-01T09:11:11;10.02;;;7.93;;
47337;SDS011;33069;51.970;5.892;2023-03-01T09:13:40;9.00;;;8.10;;
47337;SDS011;33069;51.970;5.892;2023-03-01T09:16:06;9.70;;;8.70;;
47337;SDS011;33069;51.970;5.892;2023-03-01T09:18:33;9.35;;;8.10;;
47337;SDS011;33069;51.970;5.892;2023-03-01T09:23:36;9.93;;;8.57;;
47337;SDS011;33069;51.970;5.892;2023-03-01T09:26:04;10.02;;;8.00;;
47337;SDS011;33069;51.970;5.892;2023-03-01T09:28:31;9.05;;;7.45;;
47337;SDS011;33069;51.970;5.892;2023-03-01T09:30:58;10.35;;;7.57;;
47337;SDS011;33069;51.970;5.892;2023-03-01T09:33:24;10.63;;;8.13;;
47337;SDS011;33069;51.970;5.892;2023-03-01T09:35:55;11.98;;;7.43;;
47337;SDS011;33069;51.970;5.892;2023-03-01T09:38:25;9.50;;;7.68;;
47337;SDS011;33069;51.970;5.892;2023-03-01T09:40:51;8.40;;;7.50;;
47337;SDS011;33069;51.970;5.892;2023-03-01T09:46:10;10.68;;;7.97;;
47337;SDS011;33069;51.970;5.892;2023-03-01T09:48:42;8.95;;;7.68;;
47337;SDS011;33069;51.970;5.892;2023-03-01T09:51:22;10.55;;;7.57;;
47337;SDS011;33069;51.970;5.892;2023-03-01T09:54:00;11.77;;;8.20;;
47337;SDS011;33069;51.970;5.892;2023-03-01T10:01:32;9.27;;;8.05;;
47337;SDS011;33069;51.970;5.892;2023-03-01T10:04:03;16.75;;;9.43;;
47337;SDS011;33069;51.970;5.892;2023-03-01T10:06:52;10.05;;;7.70;;
47337;SDS011;33069;51.970;5.892;2023-03-01T10:12:08;14.82;;;9.02;;
47337;SDS011;33069;51.970;5.892;2023-03-01T10:14:44;15.25;;;9.35;;
47337;SDS011;33069;51.970;5.892;2023-03-01T10:17:24;10.15;;;7.70;;
47337;SDS011;33069;51.970;5.892;2023-03-01T10:23:08;9.80;;;7.40;;
47337;SDS011;33069;51.970;5.892;2023-03-01T10:28:09;11.27;;;7.13;;
47337;SDS011;33069;51.970;5.892;2023-03-01T10:31:20;8.98;;;6.82;;
47337;SDS011;33069;51.970;5.892;2023-03-01T10:33:53;11.23;;;7.20;;
47337;SDS011;33069;51.970;5.892;2023-03-01T10:36:22;10.48;;;6.75;;
47337;SDS011;33069;51.970;5.892;2023-03-01T10:41:18;10.90;;;6.43;;
47337;SDS011;33069;51.970;5.892;2023-03-01T10:43:45;11.15;;;6.93;;
47337;SDS011;33069;51.970;5.892;2023-03-01T10:46:31;10.73;;;7.00;;
47337;SDS011;33069;51.970;5.892;2023-03-01T10:51:32;9.40;;;6.65;;
47337;SDS011;33069;51.970;5.892;2023-03-01T10:53:58;8.50;;;6.60;;
47337;SDS011;33069;51.970;5.892;2023-03-01T10:56:24;9.30;;;6.53;;
47337;SDS011;33069;51.970;5.892;2023-03-01T10:58:57;11.80;;;6.20;;
47337;SDS011;33069;51.970;5.892;2023-03-01T11:06:32;8.90;;;6.20;;
47337;SDS011;33069;51.970;5.892;2023-03-01T11:09:13;9.07;;;6.18;;
47337;SDS011;33069;51.970;5.892;2023-03-01T11:11:53;9.25;;;6.32;;
47337;SDS011;33069;51.970;5.892;2023-03-01T11:14:21;11.90;;;6.65;;
47337;SDS011;33069;51.970;5.892;2023-03-01T11:16:57;12.43;;;6.85;;
47337;SDS011;33069;51.970;5.892;2023-03-01T11:19:29;8.27;;;5.78;;
47337;SDS011;33069;51.970;5.892;2023-03-01T11:22:12;10.45;;;6.90;;
47337;SDS011;33069;51.970;5.892;2023-03-01T11:24:49;9.02;;;6.47;;
47337;SDS011;33069;51.970;5.892;2023-03-01T11:27:22;8.07;;;6.07;;
47337;SDS011;33069;51.970;5.892;2023-03-01T11:32:42;7.97;;;6.32;;
47337;SDS011;33069;51.970;5.892;2023-03-01T11:35:14;7.72;;;5.90;;
47337;SDS011;33069;51.970;5.892;2023-03-01T11:37:55;9.75;;;6.55;;
47337;SDS011;33069;51.970;5.892;2023-03-01T11:40:26;10.05;;;7.40;;
47337;SDS011;33069;51.970;5.892;2023-03-01T11:43:04;6.53;;;5.70;;
47337;SDS011;33069;51.970;5.892;2023-03-01T11:50:57;8.43;;;6.13;;
47337;SDS011;33069;51.970;5.892;2023-03-01T11:56:25;8.20;;;6.20;;
47337;SDS011;33069;51.970;5.892;2023-03-01T11:59:12;7.90;;;6.43;;
47337;SDS011;33069;51.970;5.892;2023-03-01T12:02:10;8.98;;;6.53;;
47337;SDS011;33069;51.970;5.892;2023-03-01T12:25:20;9.05;;;6.28;;
47337;SDS011;33069;51.970;5.892;2023-03-01T12:28:07;9.10;;;6.63;;
47337;SDS011;33069;51.970;5.892;2023-03-01T12:39:39;8.85;;;6.40;;
47337;SDS011;33069;51.970;5.892;2023-03-01T12:50:53;6.95;;;6.18;;
47337;SDS011;33069;51.970;5.892;2023-03-01T12:55:50;8.70;;;6.55;;
47337;SDS011;33069;51.970;5.892;2023-03-01T13:04:00;8.90;;;6.13;;
47337;SDS011;33069;51.970;5.892;2023-03-01T13:06:35;8.32;;;6.55;;
47337;SDS011;33069;51.970;5.892;2023-03-01T13:11:48;9.95;;;5.90;;
47337;SDS011;33069;51.970;5.892;2023-03-01T13:16:45;9.35;;;6.45;;
47337;SDS011;33069;51.970;5.892;2023-03-01T13:19:17;7.88;;;5.53;;
47337;SDS011;33069;51.970;5.892;2023-03-01T13:21:45;9.57;;;6.30;;
47337;SDS011;33069;51.970;5.892;2023-03-01T13:29:50;8.50;;;7.45;;
47337;SDS011;33069;51.970;5.892;2023-03-01T13:34:45;8.45;;;6.22;;
47337;SDS011;33069;51.970;5.892;2023-03-01T13:37:35;7.68;;;6.30;;
47337;SDS011;33069;51.970;5.892;2023-03-01T13:42:49;9.85;;;6.97;;
47337;SDS011;33069;51.970;5.892;2023-03-01T13:45:21;8.10;;;6.93;;
47337;SDS011;33069;51.970;5.892;2023-03-01T13:48:01;10.30;;;7.40;;
47337;SDS011;33069;51.970;5.892;2023-03-01T13:50:35;10.57;;;7.07;;
47337;SDS011;33069;51.970;5.892;2023-03-01T13:53:10;7.85;;;7.05;;
47337;SDS011;33069;51.970;5.892;2023-03-01T13:55:45;10.15;;;7.13;;
47337;SDS011;33069;51.970;5.892;2023-03-01T14:01:31;11.07;;;7.03;;
47337;SDS011;33069;51.970;5.892;2023-03-01T14:04:02;8.48;;;6.35;;
47337;SDS011;33069;51.970;5.892;2023-03-01T14:06:29;7.57;;;6.90;;
47337;SDS011;33069;51.970;5.892;2023-03-01T14:09:01;9.98;;;6.57;;
47337;SDS011;33069;51.970;5.892;2023-03-01T14:17:43;8.40;;;7.25;;
47337;SDS011;33069;51.970;5.892;2023-03-01T14:20:22;8.93;;;7.60;;
47337;SDS011;33069;51.970;5.892;2023-03-01T14:22:53;8.38;;;7.45;;
47337;SDS011;33069;51.970;5.892;2023-03-01T14:30:38;9.85;;;7.22;;
47337;SDS011;33069;51.970;5.892;2023-03-01T14:33:17;10.73;;;7.30;;
47337;SDS011;33069;51.970;5.892;2023-03-01T14:36:03;15.10;;;8.80;;
47337;SDS011;33069;51.970;5.892;2023-03-01T14:40:58;10.38;;;8.27;;
47337;SDS011;33069;51.970;5.892;2023-03-01T14:43:27;9.30;;;7.93;;
47337;SDS011;33069;51.970;5.892;2023-03-01T14:45:54;8.80;;;7.90;;
47337;SDS011;33069;51.970;5.892;2023-03-01T14:48:20;10.35;;;8.38;;
47337;SDS011;33069;51.970;5.892;2023-03-01T14:50:47;9.63;;;8.07;;
47337;SDS011;33069;51.970;5.892;2023-03-01T14:53:24;9.57;;;7.97;;
47337;SDS011;33069;51.970;5.892;2023-03-01T14:55:54;10.70;;;8.77;;
47337;SDS011;33069;51.970;5.892;2023-03-01T14:58:24;9.18;;;7.43;;
47337;SDS011;33069;51.970;5.892;2023-03-01T15:01:00;9.23;;;7.70;;
47337;SDS011;33069;51.970;5.892;2023-03-01T15:03:33;8.32;;;7.43;;
47337;SDS011;33069;51.970;5.892;2023-03-01T15:06:02;9.45;;;8.25;;
47337;SDS011;33069;51.970;5.892;2023-03-01T15:08:30;8.38;;;7.57;;
47337;SDS011;33069;51.970;5.892;2023-03-01T15:13:48;8.13;;;7.32;;
47337;SDS011;33069;51.970;5.892;2023-03-01T15:16:15;8.90;;;7.85;;
47337;SDS011;33069;51.970;5.892;2023-03-01T15:18:48;8.65;;;7.78;;
47337;SDS011;33069;51.970;5.892;2023-03-01T15:21:20;15.60;;;7.90;;
47337;SDS011;33069;51.970;5.892;2023-03-01T15:23:52;8.80;;;6.97;;
47337;SDS011;33069;51.970;5.892;2023-03-01T15:26:21;7.85;;;6.90;;
47337;SDS011;33069;51.970;5.892;2023-03-01T15:28:54;7.60;;;6.43;;
47337;SDS011;33069;51.970;5.892;2023-03-01T15:31:36;8.20;;;6.85;;
47337;SDS011;33069;51.970;5.892;2023-03-01T15:34:23;8.45;;;7.60;;
47337;SDS011;33069;51.970;5.892;2023-03-01T15:37:03;8.60;;;7.80;;
47337;SDS011;33069;51.970;5.892;2023-03-01T15:39:53;8.88;;;7.35;;
47337;SDS011;33069;51.970;5.892;2023-03-01T15:47:52;7.97;;;7.15;;
47337;SDS011;33069;51.970;5.892;2023-03-01T15:50:20;7.85;;;6.90;;
47337;SDS011;33069;51.970;5.892;2023-03-01T15:52:48;8.32;;;7.55;;
47337;SDS011;33069;51.970;5.892;2023-03-01T15:55:19;7.53;;;6.93;;
47337;SDS011;33069;51.970;5.892;2023-03-01T15:57:45;7.75;;;7.05;;
47337;SDS011;33069;51.970;5.892;2023-03-01T16:00:12;8.95;;;8.15;;
47337;SDS011;33069;51.970;5.892;2023-03-01T16:02:39;9.40;;;8.50;;
47337;SDS011;33069;51.970;5.892;2023-03-01T16:05:39;9.40;;;8.52;;
47337;SDS011;33069;51.970;5.892;2023-03-01T16:08:02;9.52;;;8.73;;
47337;SDS011;33069;51.970;5.892;2023-03-01T16:10:28;9.10;;;8.30;;
47337;SDS011;33069;51.970;5.892;2023-03-01T16:12:54;8.60;;;7.75;;
47337;SDS011;33069;51.970;5.892;2023-03-01T16:15:20;8.85;;;8.05;;
47337;SDS011;33069;51.970;5.892;2023-03-01T16:17:48;9.95;;;8.90;;
47337;SDS011;33069;51.970;5.892;2023-03-01T16:20:14;9.43;;;8.63;;
47337;SDS011;33069;51.970;5.892;2023-03-01T16:22:43;9.50;;;8.63;;
47337;SDS011;33069;51.970;5.892;2023-03-01T16:25:11;9.88;;;8.90;;
47337;SDS011;33069;51.970;5.892;2023-03-01T16:27:38;9.52;;;8.70;;
47337;SDS011;33069;51.970;5.892;2023-03-01T16:30:06;9.68;;;8.77;;
47337;SDS011;33069;51.970;5.892;2023-03-01T16:32:37;10.35;;;9.40;;
47337;SDS011;33069;51.970;5.892;2023-03-01T16:35:04;9.20;;;8.45;;
47337;SDS011;33069;51.970;5.892;2023-03-01T16:37:32;10.25;;;9.35;;
47337;SDS011;33069;51.970;5.892;2023-03-01T16:39:58;10.35;;;9.30;;
47337;SDS011;33069;51.970;5.892;2023-03-01T16:42:24;9.90;;;9.00;;
47337;SDS011;33069;51.970;5.892;2023-03-01T16:44:56;10.35;;;9.32;;
47337;SDS011;33069;51.970;5.892;2023-03-01T16:47:22;10.77;;;9.88;;
47337;SDS011;33069;51.970;5.892;2023-03-01T16:49:57;10.00;;;9.20;;
47337;SDS011;33069;51.970;5.892;2023-03-01T16:52:22;8.85;;;8.05;;
47337;SDS011;33069;51.970;5.892;2023-03-01T16:54:48;9.65;;;8.93;;
47337;SDS011;33069;51.970;5.892;2023-03-01T16:57:14;8.60;;;7.70;;
47337;SDS011;33069;51.970;5.892;2023-03-01T16:59:40;8.48;;;7.57;;
47337;SDS011;33069;51.970;5.892;2023-03-01T17:02:06;8.95;;;8.10;;
47337;SDS011;33069;51.970;5.892;2023-03-01T17:04:35;10.23;;;8.80;;
47337;SDS011;33069;51.970;5.892;2023-03-01T17:07:02;9.73;;;7.78;;
47337;SDS011;33069;51.970;5.892;2023-03-01T17:09:28;9.18;;;7.60;;
47337;SDS011;33069;51.970;5.892;2023-03-01T17:11:54;9.85;;;7.65;;
47337;SDS011;33069;51.970;5.892;2023-03-01T17:14:19;8.90;;;8.00;;
47337;SDS011;33069;51.970;5.892;2023-03-01T17:16:45;9.48;;;7.15;;
47337;SDS011;33069;51.970;5.892;2023-03-01T17:19:11;9.13;;;7.20;;
47337;SDS011;33069;51.970;5.892;2023-03-01T17:21:42;9.75;;;6.80;;